sensor_id;sensor_type;location;lat;lon;timestamp;pressure;altitude;pressure_sealevel;temperature;humidity
74893;BME280;63446;56.272;43.922;2023-04-01T00:00:56;99699.69;;;5.28;67.92
74893;BME280;63446;56.272;43.922;2023-04-01T00:03:23;99702.03;;;5.30;67.90
74893;BME280;63446;56.272;43.922;2023-04-01T00:05:49;99703.38;;;5.32;67.97
74893;BME280;63446;56.272;43.922;2023-04-01T00:08:16;99692.41;;;5.35;67.96
74893;BME280;63446;56.272;43.922;2023-04-01T00:10:43;99696.88;;;5.40;68.01
74893;BME280;63446;56.272;43.922;2023-04-01T00:13:10;99694.00;;;5.42;67.88
74893;BME280;63446;56.272;43.922;2023-04-01T00:15:36;99679.34;;;5.41;67.93
74893;BME280;63446;56.272;43.922;2023-04-01T00:18:02;99698.22;;;5.43;67.93
74893;BME280;63446;56.272;43.922;2023-04-01T00:20:29;99699.03;;;5.43;68.00
74893;BME280;63446;56.272;43.922;2023-04-01T00:22:55;99693.00;;;5.43;68.12
74893;BME280;63446;56.272;43.922;2023-04-01T00:25:22;99680.91;;;5.42;68.07
74893;BME280;63446;56.272;43.922;2023-04-01T00:27:48;99677.50;;;5.41;68.30
74893;BME280;63446;56.272;43.922;2023-04-01T00:30:14;99682.75;;;5.41;68.20
74893;BME280;63446;56.272;43.922;2023-04-01T00:32:41;99668.84;;;5.41;68.23
74893;BME280;63446;56.272;43.922;2023-04-01T00:35:07;99673.03;;;5.42;68.35
74893;BME280;63446;56.272;43.922;2023-04-01T00:37:37;99675.44;;;5.43;68.57
74893;BME280;63446;56.272;43.922;2023-04-01T00:40:10;99682.75;;;5.41;68.45
74893;BME280;63446;56.272;43.922;2023-04-01T00:42:47;99671.75;;;5.39;68.51
74893;BME280;63446;56.272;43.922;2023-04-01T00:45:37;99676.72;;;5.41;68.66
74893;BME280;63446;56.272;43.922;2023-04-01T00:48:09;99677.75;;;5.39;68.62
74893;BME280;63446;56.272;43.922;2023-04-01T00:50:37;99674.09;;;5.41;68.69
74893;BME280;63446;56.272;43.922;2023-04-01T00:53:07;99679.09;;;5.42;68.65
74893;BME280;63446;56.272;43.922;2023-04-01T00:55:35;99676.75;;;5.46;68.74
74893;BME280;63446;56.272;43.922;2023-04-01T00:58:07;99671.25;;;5.47;68.75
74893;BME280;63446;56.272;43.922;2023-04-01T01:00:35;99665.75;;;5.49;68.74
74893;BME280;63446;56.272;43.922;2023-04-01T01:03:01;99661.31;;;5.49;68.86
74893;BME280;63446;56.272;43.922;2023-04-01T01:05:43;99668.94;;;5.51;68.80
74893;BME280;63446;56.272;43.922;2023-04-01T01:08:29;99663.69;;;5.51;68.85
74893;BME280;63446;56.272;43.922;2023-04-01T01:10:58;99672.59;;;5.50;68.82
74893;BME280;63446;56.272;43.922;2023-04-01T01:13:36;99663.16;;;5.49;69.04
74893;BME280;63446;56.272;43.922;2023-04-01T01:16:13;99664.97;;;5.48;69.01
74893;BME280;63446;56.272;43.922;2023-04-01T01:19:01;99661.03;;;5.46;69.21
74893;BME280;63446;56.272;43.922;2023-04-01T01:27:18;99664.09;;;5.37;69.37
74893;BME280;63446;56.272;43.922;2023-04-01T01:36:05;99661.25;;;5.39;69.42
74893;BME280;63446;56.272;43.922;2023-04-01T01:38:29;99657.84;;;5.38;69.47
74893;BME280;63446;56.272;43.922;2023-04-01T01:41:04;99657.03;;;5.38;69.51
74893;BME280;63446;56.272;43.922;2023-04-01T01:43:35;99668.06;;;5.40;69.53
74893;BME280;63446;56.272;43.922;2023-04-01T01:46:07;99662.81;;;5.40;69.63
74893;BME280;63446;56.272;43.922;2023-04-01T01:48:36;99661.00;;;5.41;69.67
74893;BME280;63446;56.272;43.922;2023-04-01T01:51:05;99660.47;;;5.38;69.63
74893;BME280;63446;56.272;43.922;2023-04-01T01:53:31;99656.81;;;5.39;69.74
74893;BME280;63446;56.272;43.922;2023-04-01T01:55:57;99657.09;;;5.43;69.71
74893;BME280;63446;56.272;43.922;2023-04-01T01:58:31;99648.97;;;5.45;69.87
74893;BME280;63446;56.272;43.922;2023-04-01T02:01:06;99650.00;;;5.44;69.84
74893;BME280;63446;56.272;43.922;2023-04-01T02:03:36;99654.69;;;5.42;69.75
74893;BME280;63446;56.272;43.922;2023-04-01T02:06:06;99657.59;;;5.40;69.85
74893;BME280;63446;56.272;43.922;2023-04-01T02:08:39;99654.41;;;5.38;69.87
74893;BME280;63446;56.272;43.922;2023-04-01T02:11:11;99646.56;;;5.38;69.99
74893;BME280;63446;56.272;43.922;2023-04-01T02:13:46;99644.75;;;5.38;69.99
74893;BME280;63446;56.272;43.922;2023-04-01T02:16:28;99642.13;;;5.38;70.01
74893;BME280;63446;56.272;43.922;2023-04-01T02:18:58;99655.22;;;5.38;69.89
74893;BME280;63446;56.272;43.922;2023-04-01T02:21:29;99647.59;;;5.37;69.99
74893;BME280;63446;56.272;43.922;2023-04-01T02:23:58;99644.47;;;5.35;70.04
74893;BME280;63446;56.272;43.922;2023-04-01T02:26:26;99646.81;;;5.36;70.04
74893;BME280;63446;56.272;43.922;2023-04-01T02:28:56;99652.56;;;5.33;70.05
74893;BME280;63446;56.272;43.922;2023-04-01T02:31:24;99652.31;;;5.35;70.13
74893;BME280;63446;56.272;43.922;2023-04-01T02:33:51;99644.16;;;5.31;70.06
74893;BME280;63446;56.272;43.922;2023-04-01T02:36:18;99650.19;;;5.32;70.19
74893;BME280;63446;56.272;43.922;2023-04-01T02:38:45;99644.16;;;5.31;70.20
74893;BME280;63446;56.272;43.922;2023-04-01T02:41:12;99655.44;;;5.32;70.21
74893;BME280;63446;56.272;43.922;2023-04-01T02:43:38;99657.00;;;5.33;70.14
74893;BME280;63446;56.272;43.922;2023-04-01T02:46:04;99647.06;;;5.35;70.20
74893;BME280;63446;56.272;43.922;2023-04-01T02:48:31;99646.56;;;5.38;70.27
74893;BME280;63446;56.272;43.922;2023-04-01T02:50:57;99652.91;;;5.42;70.16
74893;BME280;63446;56.272;43.922;2023-04-01T02:53:22;99655.78;;;5.46;70.21
74893;BME280;63446;56.272;43.922;2023-04-01T02:55:51;99650.81;;;5.49;70.07
74893;BME280;63446;56.272;43.922;2023-04-01T02:58:18;99646.66;;;5.53;70.13
74893;BME280;63446;56.272;43.922;2023-04-01T03:00:44;99641.69;;;5.57;69.92
74893;BME280;63446;56.272;43.922;2023-04-01T03:03:11;99641.69;;;5.57;69.84
74893;BME280;63446;56.272;43.922;2023-04-01T03:05:38;99649.84;;;5.60;69.95
74893;BME280;63446;56.272;43.922;2023-04-01T03:08:04;99650.41;;;5.62;69.97
74893;BME280;63446;56.272;43.922;2023-04-01T03:10:29;99645.94;;;5.63;69.77
74893;BME280;63446;56.272;43.922;2023-04-01T03:12:55;99651.75;;;5.65;69.84
74893;BME280;63446;56.272;43.922;2023-04-01T03:15:21;99656.44;;;5.68;69.82
74893;BME280;63446;56.272;43.922;2023-04-01T03:17:47;99646.50;;;5.70;69.82
74893;BME280;63446;56.272;43.922;2023-04-01T03:20:13;99659.91;;;5.74;69.70
74893;BME280;63446;56.272;43.922;2023-04-01T03:22:39;99649.16;;;5.75;69.68
74893;BME280;63446;56.272;43.922;2023-04-01T03:25:05;99651.00;;;5.75;69.52
74893;BME280;63446;56.272;43.922;2023-04-01T03:27:33;99646.81;;;5.74;69.58
74893;BME280;63446;56.272;43.922;2023-04-01T03:30:05;99642.34;;;5.74;69.55
74893;BME280;63446;56.272;43.922;2023-04-01T03:32:37;99657.03;;;5.75;69.56
74893;BME280;63446;56.272;43.922;2023-04-01T03:35:03;99647.31;;;5.76;69.53
74893;BME280;63446;56.272;43.922;2023-04-01T03:37:30;99644.47;;;5.77;69.42
74893;BME280;63446;56.272;43.922;2023-04-01T03:39:56;99644.47;;;5.77;69.40
74893;BME280;63446;56.272;43.922;2023-04-01T03:42:22;99648.94;;;5.82;69.44
74893;BME280;63446;56.272;43.922;2023-04-01T03:44:51;99657.31;;;5.84;69.40
74893;BME280;63446;56.272;43.922;2023-04-01T03:47:18;99643.97;;;5.85;69.38
74893;BME280;63446;56.272;43.922;2023-04-01T03:49:43;99661.84;;;5.88;69.38
74893;BME280;63446;56.272;43.922;2023-04-01T03:52:10;99659.53;;;5.92;69.29
74893;BME280;63446;56.272;43.922;2023-04-01T03:54:37;99655.59;;;5.95;69.15
74893;BME280;63446;56.272;43.922;2023-04-01T03:57:02;99670.53;;;5.99;69.03
74893;BME280;63446;56.272;43.922;2023-04-01T03:59:28;99659.56;;;6.02;68.97
74893;BME280;63446;56.272;43.922;2023-04-01T04:01:55;99657.22;;;6.06;68.92
74893;BME280;63446;56.272;43.922;2023-04-01T04:04:21;99668.25;;;6.08;68.87
74893;BME280;63446;56.272;43.922;2023-04-01T04:06:47;99662.47;;;6.11;68.74
74893;BME280;63446;56.272;43.922;2023-04-01T04:09:14;99662.75;;;6.15;68.63
74893;BME280;63446;56.272;43.922;2023-04-01T04:11:40;99668.28;;;6.18;68.59
74893;BME280;63446;56.272;43.922;2023-04-01T04:14:06;99650.47;;;6.20;68.40
74893;BME280;63446;56.272;43.922;2023-04-01T04:16:35;99657.28;;;6.26;68.37
74893;BME280;63446;56.272;43.922;2023-04-01T04:19:03;99668.38;;;6.39;68.23
74893;BME280;63446;56.272;43.922;2023-04-01T04:21:28;99666.53;;;6.44;68.16
74893;BME280;63446;56.272;43.922;2023-04-01T04:23:54;99666.56;;;6.49;68.08
74893;BME280;63446;56.272;43.922;2023-04-01T04:26:20;99663.19;;;6.54;67.91
74893;BME280;63446;56.272;43.922;2023-04-01T04:28:54;99664.47;;;6.56;67.75
74893;BME280;63446;56.272;43.922;2023-04-01T04:31:22;99665.81;;;6.59;67.67
74893;BME280;63446;56.272;43.922;2023-04-01T04:33:50;99662.66;;;6.62;67.54
74893;BME280;63446;56.272;43.922;2023-04-01T04:36:17;99671.34;;;6.68;67.39
74893;BME280;63446;56.272;43.922;2023-04-01T04:38:44;99665.84;;;6.69;67.28
74893;BME280;63446;56.272;43.922;2023-04-01T04:41:11;99665.28;;;6.72;67.28
74893;BME280;63446;56.272;43.922;2023-04-01T04:43:41;99663.47;;;6.73;67.13
74893;BME280;63446;56.272;43.922;2023-04-01T04:46:08;99662.16;;;6.75;67.06
74893;BME280;63446;56.272;43.922;2023-04-01T04:48:35;99669.25;;;6.80;66.96
74893;BME280;63446;56.272;43.922;2023-04-01T04:51:01;99666.13;;;6.88;66.90
74893;BME280;63446;56.272;43.922;2023-04-01T04:53:29;99660.38;;;6.96;66.69
74893;BME280;63446;56.272;43.922;2023-04-01T04:55:55;99659.31;;;7.02;66.85
74893;BME280;63446;56.272;43.922;2023-04-01T04:58:46;99667.19;;;7.13;66.52
74893;BME280;63446;56.272;43.922;2023-04-01T05:01:17;99673.22;;;7.18;66.58
74893;BME280;63446;56.272;43.922;2023-04-01T05:03:43;99666.66;;;7.21;66.36
74893;BME280;63446;56.272;43.922;2023-04-01T05:06:13;99679.56;;;7.27;66.30
74893;BME280;63446;56.272;43.922;2023-04-01T05:08:41;99665.63;;;7.32;66.18
74893;BME280;63446;56.272;43.922;2023-04-01T05:11:16;99677.19;;;7.36;66.16
74893;BME280;63446;56.272;43.922;2023-04-01T05:13:43;99666.94;;;7.40;66.12
74893;BME280;63446;56.272;43.922;2023-04-01T05:16:10;99658.00;;;7.36;65.96
74893;BME280;63446;56.272;43.922;2023-04-01T05:18:37;99668.75;;;7.44;65.91
74893;BME280;63446;56.272;43.922;2023-04-01T05:21:03;99665.34;;;7.44;65.95
74893;BME280;63446;56.272;43.922;2023-04-01T05:23:31;99674.81;;;7.45;65.83
74893;BME280;63446;56.272;43.922;2023-04-01T05:25:58;99672.72;;;7.47;65.83
74893;BME280;63446;56.272;43.922;2023-04-01T05:28:23;99677.97;;;7.52;65.42
74893;BME280;63446;56.272;43.922;2023-04-01T05:30:50;99672.16;;;7.60;65.35
74893;BME280;63446;56.272;43.922;2023-04-01T05:33:20;99677.16;;;7.67;65.10
74893;BME280;63446;56.272;43.922;2023-04-01T05:35:47;99672.16;;;7.70;65.08
74893;BME280;63446;56.272;43.922;2023-04-01T05:38:13;99673.19;;;7.74;64.85
74893;BME280;63446;56.272;43.922;2023-04-01T05:40:39;99674.22;;;7.83;64.76
74893;BME280;63446;56.272;43.922;2023-04-01T05:43:05;99664.72;;;7.98;64.42
74893;BME280;63446;56.272;43.922;2023-04-01T05:45:31;99671.50;;;8.14;64.27
74893;BME280;63446;56.272;43.922;2023-04-01T05:48:30;99660.38;;;8.32;63.96
74893;BME280;63446;56.272;43.922;2023-04-01T05:50:57;99672.22;;;8.40;63.72
74893;BME280;63446;56.272;43.922;2023-04-01T05:53:23;99665.34;;;8.49;63.41
74893;BME280;63446;56.272;43.922;2023-04-01T05:55:50;99665.56;;;8.58;63.27
74893;BME280;63446;56.272;43.922;2023-04-01T05:58:16;99668.13;;;8.68;63.12
74893;BME280;63446;56.272;43.922;2023-04-01T06:00:44;99665.91;;;8.86;62.96
74893;BME280;63446;56.272;43.922;2023-04-01T06:03:11;99673.41;;;9.08;62.44
74893;BME280;63446;56.272;43.922;2023-04-01T06:05:43;99674.81;;;9.29;61.99
74893;BME280;63446;56.272;43.922;2023-04-01T06:08:17;99666.50;;;9.46;61.40
74893;BME280;63446;56.272;43.922;2023-04-01T06:36:02;99685.47;;;9.77;59.52
74893;BME280;63446;56.272;43.922;2023-04-01T06:38:45;99680.97;;;9.77;59.20
74893;BME280;63446;56.272;43.922;2023-04-01T06:41:37;99683.22;;;9.89;58.59
74893;BME280;63446;56.272;43.922;2023-04-01T06:56:05;99696.47;;;11.13;55.94
74893;BME280;63446;56.272;43.922;2023-04-01T06:58:43;99694.78;;;11.36;55.28
74893;BME280;63446;56.272;43.922;2023-04-01T07:01:40;99696.53;;;11.73;54.78
74893;BME280;63446;56.272;43.922;2023-04-01T07:04:18;99697.97;;;12.12;54.10
74893;BME280;63446;56.272;43.922;2023-04-01T07:09:27;99708.22;;;12.68;52.67
74893;BME280;63446;56.272;43.922;2023-04-01T07:17:45;99710.81;;;13.41;50.95
74893;BME280;63446;56.272;43.922;2023-04-01T07:22:46;99717.72;;;13.42;50.74
74893;BME280;63446;56.272;43.922;2023-04-01T07:25:40;99716.47;;;13.48;50.59
74893;BME280;63446;56.272;43.922;2023-04-01T07:28:30;99722.28;;;13.50;50.68
74893;BME280;63446;56.272;43.922;2023-04-01T07:31:35;99716.63;;;13.43;50.56
74893;BME280;63446;56.272;43.922;2023-04-01T07:37:07;99731.75;;;13.06;50.83
74893;BME280;63446;56.272;43.922;2023-04-01T07:53:50;99738.38;;;11.57;53.01
74893;BME280;63446;56.272;43.922;2023-04-01T07:56:27;99757.63;;;11.44;53.45
74893;BME280;63446;56.272;43.922;2023-04-01T08:07:22;99761.41;;;11.89;53.35
74893;BME280;63446;56.272;43.922;2023-04-01T08:10:31;99773.69;;;12.13;53.40
74893;BME280;63446;56.272;43.922;2023-04-01T08:13:50;99767.81;;;12.43;53.08
74893;BME280;63446;56.272;43.922;2023-04-01T08:22:51;99777.81;;;13.10;51.49
74893;BME280;63446;56.272;43.922;2023-04-01T08:25:28;99788.81;;;13.17;51.11
74893;BME280;63446;56.272;43.922;2023-04-01T08:28:17;99785.38;;;13.17;50.90
74893;BME280;63446;56.272;43.922;2023-04-01T08:31:04;99788.81;;;13.17;50.79
74893;BME280;63446;56.272;43.922;2023-04-01T08:33:33;99795.09;;;13.22;50.77
74893;BME280;63446;56.272;43.922;2023-04-01T08:38:57;99801.09;;;13.13;50.94
74893;BME280;63446;56.272;43.922;2023-04-01T08:45:04;99811.38;;;12.79;51.12
74893;BME280;63446;56.272;43.922;2023-04-01T08:50:24;99814.84;;;12.38;51.91
74893;BME280;63446;56.272;43.922;2023-04-01T08:56:17;99825.47;;;12.05;52.21
74893;BME280;63446;56.272;43.922;2023-04-01T09:10:59;99847.91;;;12.27;52.22
74893;BME280;63446;56.272;43.922;2023-04-01T09:17:18;99863.75;;;12.13;52.08
74893;BME280;63446;56.272;43.922;2023-04-01T09:22:39;99873.38;;;11.90;52.37
74893;BME280;63446;56.272;43.922;2023-04-01T09:25:23;99874.25;;;11.85;52.63
74893;BME280;63446;56.272;43.922;2023-04-01T09:28:10;99873.97;;;11.87;53.08
74893;BME280;63446;56.272;43.922;2023-04-01T09:36:45;99888.56;;;11.84;53.33
74893;BME280;63446;56.272;43.922;2023-04-01T09:42:31;99885.97;;;11.98;53.54
74893;BME280;63446;56.272;43.922;2023-04-01T09:45:42;99897.31;;;12.17;53.56
74893;BME280;63446;56.272;43.922;2023-04-01T09:48:46;99890.88;;;12.37;53.96
74893;BME280;63446;56.272;43.922;2023-04-01T10:17:20;99913.25;;;11.61;54.39
74893;BME280;63446;56.272;43.922;2023-04-01T10:29:09;99927.53;;;11.79;54.26
74893;BME280;63446;56.272;43.922;2023-04-01T10:37:44;99950.97;;;11.90;54.85
74893;BME280;63446;56.272;43.922;2023-04-01T10:43:57;99949.63;;;12.26;54.23
74893;BME280;63446;56.272;43.922;2023-04-01T10:59:20;99973.03;;;12.70;53.82
74893;BME280;63446;56.272;43.922;2023-04-01T11:11:51;99993.53;;;11.94;54.29
74893;BME280;63446;56.272;43.922;2023-04-01T11:17:48;100003.03;;;11.52;54.48
74893;BME280;63446;56.272;43.922;2023-04-01T11:21:04;100012.31;;;11.31;54.97
74893;BME280;63446;56.272;43.922;2023-04-01T11:26:33;100017.78;;;11.10;55.19
74893;BME280;63446;56.272;43.922;2023-04-01T11:40:47;100025.47;;;12.21;53.91
74893;BME280;63446;56.272;43.922;2023-04-01T12:03:26;100038.78;;;12.68;51.60
74893;BME280;63446;56.272;43.922;2023-04-01T12:06:16;100045.38;;;12.70;51.67
74893;BME280;63446;56.272;43.922;2023-04-01T12:09:07;100043.03;;;12.69;51.69
74893;BME280;63446;56.272;43.922;2023-04-01T12:11:51;100039.75;;;12.58;51.30
74893;BME280;63446;56.272;43.922;2023-04-01T12:19:51;100052.34;;;12.34;51.45
74893;BME280;63446;56.272;43.922;2023-04-01T12:22:28;100047.09;;;12.29;51.52
74893;BME280;63446;56.272;43.922;2023-04-01T12:25:19;100053.47;;;12.09;51.54
74893;BME280;63446;56.272;43.922;2023-04-01T12:27:54;100046.63;;;11.84;51.60
74893;BME280;63446;56.272;43.922;2023-04-01T12:35:42;100067.88;;;11.25;52.70
74893;BME280;63446;56.272;43.922;2023-04-01T12:41:49;100074.63;;;11.13;52.80
74893;BME280;63446;56.272;43.922;2023-04-01T12:55:48;100102.97;;;11.36;52.46
74893;BME280;63446;56.272;43.922;2023-04-01T12:59:04;100108.22;;;11.41;52.30
74893;BME280;63446;56.272;43.922;2023-04-01T13:01:29;100109.81;;;11.42;52.39
74893;BME280;63446;56.272;43.922;2023-04-01T13:09:52;100113.72;;;11.45;52.48
74893;BME280;63446;56.272;43.922;2023-04-01T13:15:20;100123.72;;;11.53;52.28
74893;BME280;63446;56.272;43.922;2023-04-01T13:23:32;100134.59;;;11.52;51.62
74893;BME280;63446;56.272;43.922;2023-04-01T13:26:22;100136.75;;;11.44;51.63
74893;BME280;63446;56.272;43.922;2023-04-01T13:39:42;100156.97;;;11.01;52.22
74893;BME280;63446;56.272;43.922;2023-04-01T13:42:21;100163.13;;;10.91;52.31
74893;BME280;63446;56.272;43.922;2023-04-01T13:47:55;100170.66;;;10.74;52.86
74893;BME280;63446;56.272;43.922;2023-04-01T13:56:34;100190.59;;;10.51;53.48
74893;BME280;63446;56.272;43.922;2023-04-01T14:02:03;100199.41;;;10.31;53.83
74893;BME280;63446;56.272;43.922;2023-04-01T14:11:02;100202.88;;;10.06;54.15
74893;BME280;63446;56.272;43.922;2023-04-01T14:13:44;100200.75;;;10.03;54.31
74893;BME280;63446;56.272;43.922;2023-04-01T14:30:27;100234.59;;;9.91;54.91
74893;BME280;63446;56.272;43.922;2023-04-01T14:36:01;100243.84;;;9.83;55.31
74893;BME280;63446;56.272;43.922;2023-04-01T14:44:49;100261.56;;;9.72;55.54
74893;BME280;63446;56.272;43.922;2023-04-01T14:50:49;100271.81;;;9.64;55.58
74893;BME280;63446;56.272;43.922;2023-04-01T14:53:29;100272.09;;;9.57;55.63
74893;BME280;63446;56.272;43.922;2023-04-01T14:56:02;100281.06;;;9.51;55.71
74893;BME280;63446;56.272;43.922;2023-04-01T15:07:18;100288.41;;;9.34;56.09
74893;BME280;63446;56.272;43.922;2023-04-01T15:32:25;100318.41;;;9.02;56.66
74893;BME280;63446;56.272;43.922;2023-04-01T15:34:59;100331.06;;;9.00;56.83
74893;BME280;63446;56.272;43.922;2023-04-01T15:40:32;100342.13;;;8.97;56.92
74893;BME280;63446;56.272;43.922;2023-04-01T15:46:08;100364.22;;;8.91;57.04
74893;BME280;63446;56.272;43.922;2023-04-01T15:57:06;100372.03;;;8.70;57.75
74893;BME280;63446;56.272;43.922;2023-04-01T15:59:51;100375.19;;;8.67;57.87
74893;BME280;63446;56.272;43.922;2023-04-01T16:05:26;100383.06;;;8.62;58.20
74893;BME280;63446;56.272;43.922;2023-04-01T16:08:17;100394.09;;;8.59;58.37
74893;BME280;63446;56.272;43.922;2023-04-01T16:10:59;100404.91;;;8.58;58.46
74893;BME280;63446;56.272;43.922;2023-04-01T16:19:03;100393.78;;;8.50;58.78
74893;BME280;63446;56.272;43.922;2023-04-01T16:21:49;100393.22;;;8.48;58.86
74893;BME280;63446;56.272;43.922;2023-04-01T16:25:25;100397.97;;;8.46;59.03
74893;BME280;63446;56.272;43.922;2023-04-01T16:27:36;100391.91;;;8.46;59.07
74893;BME280;63446;56.272;43.922;2023-04-01T16:30:40;100389.28;;;8.46;59.19
74893;BME280;63446;56.272;43.922;2023-04-01T16:36:22;100399.81;;;8.46;59.29
74893;BME280;63446;56.272;43.922;2023-04-01T16:39:06;100397.41;;;8.44;59.35
74893;BME280;63446;56.272;43.922;2023-04-01T16:41:38;100413.22;;;8.44;59.35
74893;BME280;63446;56.272;43.922;2023-04-01T16:44:20;100407.66;;;8.41;59.40
74893;BME280;63446;56.272;43.922;2023-04-01T16:49:31;100412.16;;;8.40;59.60
74893;BME280;63446;56.272;43.922;2023-04-01T16:54:57;100411.81;;;8.37;59.73
74893;BME280;63446;56.272;43.922;2023-04-01T17:09:01;100410.78;;;8.05;60.30
74893;BME280;63446;56.272;43.922;2023-04-01T17:12:30;100410.91;;;7.89;60.60
74893;BME280;63446;56.272;43.922;2023-04-01T17:14:45;100416.25;;;7.72;60.96
74893;BME280;63446;56.272;43.922;2023-04-01T17:20:01;100414.16;;;7.47;61.38
74893;BME280;63446;56.272;43.922;2023-04-01T17:22:44;100412.16;;;7.32;61.64
74893;BME280;63446;56.272;43.922;2023-04-01T17:27:52;100410.88;;;7.13;62.14
74893;BME280;63446;56.272;43.922;2023-04-01T17:30:26;100406.84;;;7.05;62.47
74893;BME280;63446;56.272;43.922;2023-04-01T17:33:19;100399.91;;;6.99;62.51
74893;BME280;63446;56.272;43.922;2023-04-01T17:36:08;100404.00;;;6.90;62.63
74893;BME280;63446;56.272;43.922;2023-04-01T17:41:48;100406.25;;;6.81;62.87
74893;BME280;63446;56.272;43.922;2023-04-01T17:47:29;100395.94;;;6.74;63.10
74893;BME280;63446;56.272;43.922;2023-04-01T17:52:55;100385.84;;;6.66;63.38
74893;BME280;63446;56.272;43.922;2023-04-01T17:55:46;100399.50;;;6.68;63.26
74893;BME280;63446;56.272;43.922;2023-04-01T17:58:39;100393.94;;;6.65;63.47
74893;BME280;63446;56.272;43.922;2023-04-01T18:06:36;100405.16;;;6.60;63.67
74893;BME280;63446;56.272;43.922;2023-04-01T18:20:18;100416.66;;;6.54;64.01
74893;BME280;63446;56.272;43.922;2023-04-01T18:23:04;100411.31;;;6.49;63.96
74893;BME280;63446;56.272;43.922;2023-04-01T18:25:43;100419.91;;;6.44;64.12
74893;BME280;63446;56.272;43.922;2023-04-01T18:33:42;100419.34;;;6.25;64.50
74893;BME280;63446;56.272;43.922;2023-04-01T18:39:07;100412.34;;;6.14;64.75
74893;BME280;63446;56.272;43.922;2023-04-01T18:41:51;100417.25;;;6.10;64.93
74893;BME280;63446;56.272;43.922;2023-04-01T18:44:28;100419.88;;;6.10;65.02
74893;BME280;63446;56.272;43.922;2023-04-01T18:47:23;100416.72;;;6.08;65.00
74893;BME280;63446;56.272;43.922;2023-04-01T18:51:11;100411.78;;;6.12;64.95
74893;BME280;63446;56.272;43.922;2023-04-01T18:56:03;100412.66;;;6.18;64.98
74893;BME280;63446;56.272;43.922;2023-04-01T19:04:04;100425.88;;;6.40;64.96
74893;BME280;63446;56.272;43.922;2023-04-01T19:06:42;100427.63;;;6.51;64.88
74893;BME280;63446;56.272;43.922;2023-04-01T19:09:18;100422.50;;;6.61;64.69
74893;BME280;63446;56.272;43.922;2023-04-01T19:15:02;100425.19;;;6.83;64.42
74893;BME280;63446;56.272;43.922;2023-04-01T19:20:27;100428.81;;;6.99;64.24
74893;BME280;63446;56.272;43.922;2023-04-01T19:25:40;100422.13;;;7.08;64.17
74893;BME280;63446;56.272;43.922;2023-04-01T19:28:22;100425.13;;;7.17;64.13
74893;BME280;63446;56.272;43.922;2023-04-01T19:36:38;100416.38;;;7.33;63.86
74893;BME280;63446;56.272;43.922;2023-04-01T19:39:25;100429.03;;;7.36;63.84
74893;BME280;63446;56.272;43.922;2023-04-01T19:42:06;100426.13;;;7.38;63.91
74893;BME280;63446;56.272;43.922;2023-04-01T19:45:03;100429.06;;;7.41;63.75
74893;BME280;63446;56.272;43.922;2023-04-01T19:48:01;100434.09;;;7.43;63.78
74893;BME280;63446;56.272;43.922;2023-04-01T19:53:14;100428.09;;;7.47;63.67
74893;BME280;63446;56.272;43.922;2023-04-01T19:55:52;100426.25;;;7.48;63.66
74893;BME280;63446;56.272;43.922;2023-04-01T20:01:08;100430.56;;;7.54;63.57
74893;BME280;63446;56.272;43.922;2023-04-01T20:08:42;100443.25;;;7.62;63.56
74893;BME280;63446;56.272;43.922;2023-04-01T20:17:20;100436.94;;;7.63;63.61
74893;BME280;63446;56.272;43.922;2023-04-01T20:22:52;100448.03;;;7.65;63.56
74893;BME280;63446;56.272;43.922;2023-04-01T20:25:32;100447.78;;;7.67;63.59
74893;BME280;63446;56.272;43.922;2023-04-01T20:33:58;100464.16;;;7.74;63.65
74893;BME280;63446;56.272;43.922;2023-04-01T20:36:39;100462.88;;;7.76;63.58
74893;BME280;63446;56.272;43.922;2023-04-01T20:42:21;100462.16;;;7.81;63.58
74893;BME280;63446;56.272;43.922;2023-04-01T20:45:04;100459.03;;;7.84;63.51
74893;BME280;63446;56.272;43.922;2023-04-01T20:47:45;100471.91;;;7.86;63.52
74893;BME280;63446;56.272;43.922;2023-04-01T20:50:21;100469.59;;;7.89;63.50
74893;BME280;63446;56.272;43.922;2023-04-01T20:53:11;100472.75;;;7.91;63.66
74893;BME280;63446;56.272;43.922;2023-04-01T21:01:33;100467.91;;;8.05;63.54
74893;BME280;63446;56.272;43.922;2023-04-01T21:04:27;100479.53;;;8.09;63.61
74893;BME280;63446;56.272;43.922;2023-04-01T21:23:35;100497.19;;;8.41;63.63
74893;BME280;63446;56.272;43.922;2023-04-01T21:26:12;100496.72;;;8.44;63.59
74893;BME280;63446;56.272;43.922;2023-04-01T21:31:59;100504.91;;;8.47;63.49
74893;BME280;63446;56.272;43.922;2023-04-01T21:34:44;100498.34;;;8.50;63.65
74893;BME280;63446;56.272;43.922;2023-04-01T21:42:38;100509.72;;;8.55;63.90
74893;BME280;63446;56.272;43.922;2023-04-01T21:45:19;100511.28;;;8.56;64.07
74893;BME280;63446;56.272;43.922;2023-04-01T22:06:55;100506.78;;;8.52;64.84
74893;BME280;63446;56.272;43.922;2023-04-01T22:09:40;100506.25;;;8.50;65.04
74893;BME280;63446;56.272;43.922;2023-04-01T22:12:19;100503.84;;;8.48;65.15
74893;BME280;63446;56.272;43.922;2023-04-01T22:18:27;100501.19;;;8.43;65.05
74893;BME280;63446;56.272;43.922;2023-04-01T22:21:24;100505.81;;;8.36;65.11
74893;BME280;63446;56.272;43.922;2023-04-01T22:27:00;100509.91;;;8.22;65.31
74893;BME280;63446;56.272;43.922;2023-04-01T22:32:12;100516.47;;;8.19;65.51
74893;BME280;63446;56.272;43.922;2023-04-01T22:37:37;100518.06;;;8.20;65.64
74893;BME280;63446;56.272;43.922;2023-04-01T22:48:18;100516.56;;;8.29;65.33
74893;BME280;63446;56.272;43.922;2023-04-01T22:55:53;100517.16;;;8.37;65.21
74893;BME280;63446;56.272;43.922;2023-04-01T22:58:42;100515.09;;;8.39;65.03
74893;BME280;63446;56.272;43.922;2023-04-01T23:01:16;100521.97;;;8.40;65.12
74893;BME280;63446;56.272;43.922;2023-04-01T23:03:48;100508.00;;;8.39;65.00
74893;BME280;63446;56.272;43.922;2023-04-01T23:06:23;100516.69;;;8.40;65.06